sensor_id;sensor_type;location;lat;lon;timestamp;P1;durP1;ratioP1;P2;durP2;ratioP2
61104;SDS011;46987;32.638;-115.438;2022-10-16T00:01:14;9.02;;;4.55;;
61104;SDS011;46987;32.638;-115.438;2022-10-16T00:03:43;10.35;;;4.80;;
61104;SDS011;46987;32.638;-115.438;2022-10-16T00:06:11;10.55;;;4.20;;
61104;SDS011;46987;32.638;-115.438;2022-10-16T00:08:40;8.27;;;3.85;;
61104;SDS011;46987;32.638;-115.438;2022-10-16T00:11:08;9.63;;;3.58;;
61104;SDS011;46987;32.638;-115.438;2022-10-16T00:13:40;7.57;;;2.78;;
61104;SDS011;46987;32.638;-115.438;2022-10-16T00:16:11;6.85;;;2.30;;
61104;SDS011;46987;32.638;-115.438;2022-10-16T00:18:39;8.32;;;2.63;;
61104;SDS011;46987;32.638;-115.438;2022-10-16T00:21:09;12.38;;;3.20;;
61104;SDS011;46987;32.638;-115.438;2022-10-16T00:23:38;10.77;;;3.40;;
61104;SDS011;46987;32.638;-115.438;2022-10-16T00:26:06;7.85;;;2.65;;
61104;SDS011;46987;32.638;-115.438;2022-10-16T00:28:35;7.63;;;3.60;;
61104;SDS011;46987;32.638;-115.438;2022-10-16T00:31:05;13.02;;;3.33;;
61104;SDS011;46987;32.638;-115.438;2022-10-16T00:33:33;13.63;;;3.67;;
61104;SDS011;46987;32.638;-115.438;2022-10-16T00:36:02;7.40;;;3.58;;
61104;SDS011;46987;32.638;-115.438;2022-10-16T00:38:31;7.68;;;3.28;;
61104;SDS011;46987;32.638;-115.438;2022-10-16T00:40:58;7.70;;;2.65;;
61104;SDS011;46987;32.638;-115.438;2022-10-16T00:43:33;12.90;;;2.78;;
61104;SDS011;46987;32.638;-115.438;2022-10-16T00:46:03;8.73;;;2.78;;
61104;SDS011;46987;32.638;-115.438;2022-10-16T00:48:36;7.45;;;2.17;;
61104;SDS011;46987;32.638;-115.438;2022-10-16T00:51:04;5.88;;;2.00;;
61104;SDS011;46987;32.638;-115.438;2022-10-16T00:53:33;7.10;;;2.10;;
61104;SDS011;46987;32.638;-115.438;2022-10-16T00:56:01;4.88;;;1.70;;
61104;SDS011;46987;32.638;-115.438;2022-10-16T00:58:29;4.47;;;1.45;;
61104;SDS011;46987;32.638;-115.438;2022-10-16T01:00:56;6.18;;;1.90;;
61104;SDS011;46987;32.638;-115.438;2022-10-16T01:03:26;5.72;;;1.60;;
61104;SDS011;46987;32.638;-115.438;2022-10-16T01:05:59;6.30;;;1.40;;
61104;SDS011;46987;32.638;-115.438;2022-10-16T01:08:46;4.43;;;1.40;;
61104;SDS011;46987;32.638;-115.438;2022-10-16T01:11:22;6.30;;;1.85;;
61104;SDS011;46987;32.638;-115.438;2022-10-16T01:13:53;5.28;;;1.75;;
61104;SDS011;46987;32.638;-115.438;2022-10-16T01:16:27;6.43;;;2.70;;
61104;SDS011;46987;32.638;-115.438;2022-10-16T01:19:04;7.93;;;2.08;;
61104;SDS011;46987;32.638;-115.438;2022-10-16T01:21:36;6.97;;;2.10;;
61104;SDS011;46987;32.638;-115.438;2022-10-16T01:24:08;5.35;;;1.90;;
61104;SDS011;46987;32.638;-115.438;2022-10-16T01:29:47;5.53;;;2.08;;
61104;SDS011;46987;32.638;-115.438;2022-10-16T01:32:22;5.57;;;1.92;;
61104;SDS011;46987;32.638;-115.438;2022-10-16T01:34:56;5.10;;;2.00;;
61104;SDS011;46987;32.638;-115.438;2022-10-16T01:37:29;8.75;;;2.30;;
61104;SDS011;46987;32.638;-115.438;2022-10-16T01:40:02;7.93;;;2.47;;
61104;SDS011;46987;32.638;-115.438;2022-10-16T01:42:37;7.88;;;2.70;;
61104;SDS011;46987;32.638;-115.438;2022-10-16T01:45:07;5.68;;;2.42;;
61104;SDS011;46987;32.638;-115.438;2022-10-16T01:47:39;7.18;;;2.22;;
61104;SDS011;46987;32.638;-115.438;2022-10-16T01:50:08;6.40;;;2.00;;
61104;SDS011;46987;32.638;-115.438;2022-10-16T01:52:36;6.60;;;2.38;;
61104;SDS011;46987;32.638;-115.438;2022-10-16T01:55:07;7.47;;;2.22;;
61104;SDS011;46987;32.638;-115.438;2022-10-16T01:57:39;6.05;;;1.77;;
61104;SDS011;46987;32.638;-115.438;2022-10-16T02:00:13;5.47;;;1.60;;
61104;SDS011;46987;32.638;-115.438;2022-10-16T02:02:44;6.80;;;2.20;;
61104;SDS011;46987;32.638;-115.438;2022-10-16T02:05:15;4.20;;;2.00;;
61104;SDS011;46987;32.638;-115.438;2022-10-16T02:07:47;5.05;;;2.03;;
61104;SDS011;46987;32.638;-115.438;2022-10-16T02:10:15;8.80;;;2.30;;
61104;SDS011;46987;32.638;-115.438;2022-10-16T02:12:44;5.32;;;1.77;;
61104;SDS011;46987;32.638;-115.438;2022-10-16T02:15:16;4.93;;;1.70;;
61104;SDS011;46987;32.638;-115.438;2022-10-16T02:17:43;6.57;;;1.88;;
61104;SDS011;46987;32.638;-115.438;2022-10-16T02:20:10;6.10;;;2.05;;
61104;SDS011;46987;32.638;-115.438;2022-10-16T02:22:39;5.82;;;2.25;;
61104;SDS011;46987;32.638;-115.438;2022-10-16T02:25:10;4.78;;;2.08;;
61104;SDS011;46987;32.638;-115.438;2022-10-16T02:27:43;4.38;;;1.83;;
61104;SDS011;46987;32.638;-115.438;2022-10-16T02:30:19;3.80;;;1.60;;
61104;SDS011;46987;32.638;-115.438;2022-10-16T02:32:51;6.45;;;1.83;;
61104;SDS011;46987;32.638;-115.438;2022-10-16T02:35:21;5.35;;;1.58;;
61104;SDS011;46987;32.638;-115.438;2022-10-16T02:37:53;3.65;;;1.60;;
61104;SDS011;46987;32.638;-115.438;2022-10-16T02:40:22;4.97;;;1.85;;
61104;SDS011;46987;32.638;-115.438;2022-10-16T02:42:56;4.53;;;1.95;;
61104;SDS011;46987;32.638;-115.438;2022-10-16T02:45:23;4.82;;;1.40;;
61104;SDS011;46987;32.638;-115.438;2022-10-16T02:47:51;11.55;;;2.53;;
61104;SDS011;46987;32.638;-115.438;2022-10-16T02:50:18;7.90;;;1.73;;
61104;SDS011;46987;32.638;-115.438;2022-10-16T02:52:45;4.93;;;1.80;;
61104;SDS011;46987;32.638;-115.438;2022-10-16T02:55:13;6.05;;;1.95;;
61104;SDS011;46987;32.638;-115.438;2022-10-16T02:57:40;6.28;;;1.45;;
61104;SDS011;46987;32.638;-115.438;2022-10-16T03:00:11;7.72;;;2.10;;
61104;SDS011;46987;32.638;-115.438;2022-10-16T03:02:40;5.28;;;1.63;;
61104;SDS011;46987;32.638;-115.438;2022-10-16T03:05:07;10.70;;;2.25;;
61104;SDS011;46987;32.638;-115.438;2022-10-16T03:07:36;6.50;;;1.67;;
61104;SDS011;46987;32.638;-115.438;2022-10-16T03:10:04;9.45;;;2.38;;
61104;SDS011;46987;32.638;-115.438;2022-10-16T03:12:32;9.90;;;2.00;;
61104;SDS011;46987;32.638;-115.438;2022-10-16T03:15:00;5.53;;;1.50;;
61104;SDS011;46987;32.638;-115.438;2022-10-16T03:17:32;4.10;;;1.50;;
61104;SDS011;46987;32.638;-115.438;2022-10-16T03:19:59;5.38;;;2.03;;
61104;SDS011;46987;32.638;-115.438;2022-10-16T03:22:27;5.70;;;2.00;;
61104;SDS011;46987;32.638;-115.438;2022-10-16T03:24:54;8.52;;;2.03;;
61104;SDS011;46987;32.638;-115.438;2022-10-16T03:27:21;8.80;;;1.83;;
61104;SDS011;46987;32.638;-115.438;2022-10-16T03:29:49;6.82;;;1.48;;
61104;SDS011;46987;32.638;-115.438;2022-10-16T03:32:19;6.57;;;1.42;;
61104;SDS011;46987;32.638;-115.438;2022-10-16T03:34:49;6.28;;;1.40;;
61104;SDS011;46987;32.638;-115.438;2022-10-16T03:37:16;7.10;;;2.00;;
61104;SDS011;46987;32.638;-115.438;2022-10-16T03:39:43;10.30;;;2.42;;
61104;SDS011;46987;32.638;-115.438;2022-10-16T03:42:10;8.95;;;2.40;;
61104;SDS011;46987;32.638;-115.438;2022-10-16T03:44:38;16.13;;;2.75;;
61104;SDS011;46987;32.638;-115.438;2022-10-16T03:47:05;7.07;;;1.73;;
61104;SDS011;46987;32.638;-115.438;2022-10-16T03:49:32;9.63;;;2.00;;
61104;SDS011;46987;32.638;-115.438;2022-10-16T03:52:01;16.35;;;1.95;;
61104;SDS011;46987;32.638;-115.438;2022-10-16T03:54:28;9.07;;;2.28;;
61104;SDS011;46987;32.638;-115.438;2022-10-16T03:56:55;13.20;;;1.90;;
61104;SDS011;46987;32.638;-115.438;2022-10-16T03:59:23;9.98;;;1.90;;
61104;SDS011;46987;32.638;-115.438;2022-10-16T04:01:50;14.25;;;2.00;;
61104;SDS011;46987;32.638;-115.438;2022-10-16T04:04:17;12.82;;;2.22;;
61104;SDS011;46987;32.638;-115.438;2022-10-16T04:06:44;13.02;;;2.10;;
61104;SDS011;46987;32.638;-115.438;2022-10-16T04:09:13;10.95;;;1.83;;
61104;SDS011;46987;32.638;-115.438;2022-10-16T04:11:41;5.30;;;1.77;;
61104;SDS011;46987;32.638;-115.438;2022-10-16T04:14:13;8.98;;;1.80;;
61104;SDS011;46987;32.638;-115.438;2022-10-16T04:16:41;13.43;;;1.83;;
61104;SDS011;46987;32.638;-115.438;2022-10-16T04:19:09;10.80;;;1.83;;
61104;SDS011;46987;32.638;-115.438;2022-10-16T04:21:36;9.13;;;1.90;;
61104;SDS011;46987;32.638;-115.438;2022-10-16T04:24:03;9.45;;;1.77;;
61104;SDS011;46987;32.638;-115.438;2022-10-16T04:26:32;8.15;;;1.50;;
61104;SDS011;46987;32.638;-115.438;2022-10-16T04:29:00;9.00;;;1.55;;
61104;SDS011;46987;32.638;-115.438;2022-10-16T04:31:28;13.73;;;2.05;;
61104;SDS011;46987;32.638;-115.438;2022-10-16T04:33:55;9.30;;;1.55;;
61104;SDS011;46987;32.638;-115.438;2022-10-16T04:36:23;10.23;;;1.63;;
61104;SDS011;46987;32.638;-115.438;2022-10-16T04:38:50;6.75;;;1.88;;
61104;SDS011;46987;32.638;-115.438;2022-10-16T04:41:17;8.63;;;2.30;;
61104;SDS011;46987;32.638;-115.438;2022-10-16T04:43:46;10.82;;;3.42;;
61104;SDS011;46987;32.638;-115.438;2022-10-16T04:46:13;6.30;;;1.90;;
61104;SDS011;46987;32.638;-115.438;2022-10-16T04:48:40;6.93;;;1.52;;
61104;SDS011;46987;32.638;-115.438;2022-10-16T04:51:07;8.60;;;1.92;;
61104;SDS011;46987;32.638;-115.438;2022-10-16T04:53:35;9.35;;;1.55;;
61104;SDS011;46987;32.638;-115.438;2022-10-16T04:56:02;8.18;;;1.33;;
61104;SDS011;46987;32.638;-115.438;2022-10-16T04:58:30;5.63;;;1.60;;
61104;SDS011;46987;32.638;-115.438;2022-10-16T05:00:59;5.28;;;1.63;;
61104;SDS011;46987;32.638;-115.438;2022-10-16T05:03:26;4.43;;;1.13;;
61104;SDS011;46987;32.638;-115.438;2022-10-16T05:05:54;8.75;;;2.03;;
61104;SDS011;46987;32.638;-115.438;2022-10-16T05:08:22;4.68;;;1.20;;
61104;SDS011;46987;32.638;-115.438;2022-10-16T05:10:49;4.70;;;1.10;;
61104;SDS011;46987;32.638;-115.438;2022-10-16T05:13:17;5.32;;;1.23;;
61104;SDS011;46987;32.638;-115.438;2022-10-16T05:15:46;5.47;;;1.20;;
61104;SDS011;46987;32.638;-115.438;2022-10-16T05:18:16;4.10;;;1.33;;
61104;SDS011;46987;32.638;-115.438;2022-10-16T05:20:43;3.63;;;1.13;;
61104;SDS011;46987;32.638;-115.438;2022-10-16T05:23:10;5.30;;;1.00;;
61104;SDS011;46987;32.638;-115.438;2022-10-16T05:25:37;5.85;;;1.48;;
61104;SDS011;46987;32.638;-115.438;2022-10-16T05:28:04;4.93;;;1.05;;
61104;SDS011;46987;32.638;-115.438;2022-10-16T05:30:32;2.20;;;1.05;;
61104;SDS011;46987;32.638;-115.438;2022-10-16T05:32:59;5.35;;;1.35;;
61104;SDS011;46987;32.638;-115.438;2022-10-16T05:35:28;3.45;;;1.40;;
61104;SDS011;46987;32.638;-115.438;2022-10-16T05:37:55;5.90;;;1.75;;
61104;SDS011;46987;32.638;-115.438;2022-10-16T05:40:22;8.20;;;1.88;;
61104;SDS011;46987;32.638;-115.438;2022-10-16T05:42:49;6.95;;;1.95;;
61104;SDS011;46987;32.638;-115.438;2022-10-16T05:45:20;6.85;;;1.83;;
61104;SDS011;46987;32.638;-115.438;2022-10-16T05:47:48;7.00;;;1.92;;
61104;SDS011;46987;32.638;-115.438;2022-10-16T05:50:18;5.38;;;1.95;;
61104;SDS011;46987;32.638;-115.438;2022-10-16T05:52:46;7.32;;;1.92;;
61104;SDS011;46987;32.638;-115.438;2022-10-16T05:55:14;5.28;;;1.75;;
61104;SDS011;46987;32.638;-115.438;2022-10-16T05:57:41;4.45;;;1.80;;
61104;SDS011;46987;32.638;-115.438;2022-10-16T06:00:09;5.93;;;2.13;;
61104;SDS011;46987;32.638;-115.438;2022-10-16T06:02:40;8.13;;;2.47;;
61104;SDS011;46987;32.638;-115.438;2022-10-16T06:05:08;7.03;;;2.30;;
61104;SDS011;46987;32.638;-115.438;2022-10-16T06:07:35;6.30;;;2.47;;
61104;SDS011;46987;32.638;-115.438;2022-10-16T06:10:04;8.05;;;2.85;;
61104;SDS011;46987;32.638;-115.438;2022-10-16T06:12:32;7.38;;;2.58;;
61104;SDS011;46987;32.638;-115.438;2022-10-16T06:15:00;10.43;;;2.65;;
61104;SDS011;46987;32.638;-115.438;2022-10-16T06:17:28;7.95;;;2.63;;
61104;SDS011;46987;32.638;-115.438;2022-10-16T06:19:55;6.18;;;2.35;;
61104;SDS011;46987;32.638;-115.438;2022-10-16T06:22:22;7.78;;;2.80;;
61104;SDS011;46987;32.638;-115.438;2022-10-16T06:24:50;6.63;;;2.65;;
61104;SDS011;46987;32.638;-115.438;2022-10-16T06:27:20;7.00;;;3.03;;
61104;SDS011;46987;32.638;-115.438;2022-10-16T06:29:46;7.72;;;3.58;;
61104;SDS011;46987;32.638;-115.438;2022-10-16T06:32:14;7.93;;;3.60;;
61104;SDS011;46987;32.638;-115.438;2022-10-16T06:34:41;8.32;;;4.00;;
61104;SDS011;46987;32.638;-115.438;2022-10-16T06:37:08;9.43;;;3.30;;
61104;SDS011;46987;32.638;-115.438;2022-10-16T06:39:36;8.77;;;3.70;;
61104;SDS011;46987;32.638;-115.438;2022-10-16T06:42:03;9.15;;;3.50;;
61104;SDS011;46987;32.638;-115.438;2022-10-16T06:44:36;13.35;;;3.60;;
61104;SDS011;46987;32.638;-115.438;2022-10-16T06:47:04;9.23;;;3.47;;
61104;SDS011;46987;32.638;-115.438;2022-10-16T06:49:31;8.20;;;4.05;;
61104;SDS011;46987;32.638;-115.438;2022-10-16T06:51:58;7.35;;;3.38;;
61104;SDS011;46987;32.638;-115.438;2022-10-16T06:54:25;7.78;;;4.30;;
61104;SDS011;46987;32.638;-115.438;2022-10-16T06:56:53;8.38;;;3.38;;
61104;SDS011;46987;32.638;-115.438;2022-10-16T06:59:20;8.95;;;3.83;;
61104;SDS011;46987;32.638;-115.438;2022-10-16T07:01:49;9.00;;;3.80;;
61104;SDS011;46987;32.638;-115.438;2022-10-16T07:04:16;9.68;;;3.78;;
61104;SDS011;46987;32.638;-115.438;2022-10-16T07:06:44;10.07;;;4.00;;
61104;SDS011;46987;32.638;-115.438;2022-10-16T07:09:11;8.60;;;3.88;;
61104;SDS011;46987;32.638;-115.438;2022-10-16T07:11:40;9.30;;;3.83;;
61104;SDS011;46987;32.638;-115.438;2022-10-16T07:14:11;9.23;;;3.72;;
61104;SDS011;46987;32.638;-115.438;2022-10-16T07:16:41;7.22;;;4.03;;
61104;SDS011;46987;32.638;-115.438;2022-10-16T07:19:10;11.77;;;4.13;;
61104;SDS011;46987;32.638;-115.438;2022-10-16T07:21:40;6.70;;;3.72;;
61104;SDS011;46987;32.638;-115.438;2022-10-16T07:24:10;7.40;;;3.85;;
61104;SDS011;46987;32.638;-115.438;2022-10-16T07:26:39;9.80;;;4.20;;
61104;SDS011;46987;32.638;-115.438;2022-10-16T07:29:11;9.07;;;3.95;;
61104;SDS011;46987;32.638;-115.438;2022-10-16T07:31:40;8.60;;;3.40;;
61104;SDS011;46987;32.638;-115.438;2022-10-16T07:34:07;9.15;;;3.45;;
61104;SDS011;46987;32.638;-115.438;2022-10-16T07:36:36;8.48;;;3.80;;
61104;SDS011;46987;32.638;-115.438;2022-10-16T07:39:04;6.65;;;3.60;;
61104;SDS011;46987;32.638;-115.438;2022-10-16T07:41:31;9.35;;;3.60;;
61104;SDS011;46987;32.638;-115.438;2022-10-16T07:44:02;8.07;;;3.92;;
61104;SDS011;46987;32.638;-115.438;2022-10-16T07:46:30;7.50;;;4.15;;
61104;SDS011;46987;32.638;-115.438;2022-10-16T07:48:58;7.88;;;3.95;;
61104;SDS011;46987;32.638;-115.438;2022-10-16T07:51:27;12.48;;;4.95;;
61104;SDS011;46987;32.638;-115.438;2022-10-16T07:53:55;10.25;;;4.28;;
61104;SDS011;46987;32.638;-115.438;2022-10-16T07:56:22;10.63;;;4.97;;
61104;SDS011;46987;32.638;-115.438;2022-10-16T07:58:50;8.60;;;5.07;;
61104;SDS011;46987;32.638;-115.438;2022-10-16T08:01:17;9.50;;;5.30;;
61104;SDS011;46987;32.638;-115.438;2022-10-16T08:03:45;11.85;;;5.60;;
61104;SDS011;46987;32.638;-115.438;2022-10-16T08:06:13;10.93;;;5.47;;
61104;SDS011;46987;32.638;-115.438;2022-10-16T08:08:43;10.15;;;5.95;;
61104;SDS011;46987;32.638;-115.438;2022-10-16T08:11:10;11.23;;;5.45;;
61104;SDS011;46987;32.638;-115.438;2022-10-16T08:13:38;9.98;;;6.05;;
61104;SDS011;46987;32.638;-115.438;2022-10-16T08:16:05;9.30;;;5.50;;
61104;SDS011;46987;32.638;-115.438;2022-10-16T08:18:34;10.82;;;5.88;;
61104;SDS011;46987;32.638;-115.438;2022-10-16T08:21:02;11.85;;;6.50;;
61104;SDS011;46987;32.638;-115.438;2022-10-16T08:23:30;8.85;;;5.30;;
61104;SDS011;46987;32.638;-115.438;2022-10-16T08:26:03;10.95;;;6.35;;
61104;SDS011;46987;32.638;-115.438;2022-10-16T08:28:31;8.07;;;5.70;;
61104;SDS011;46987;32.638;-115.438;2022-10-16T08:31:08;9.90;;;5.90;;
61104;SDS011;46987;32.638;-115.438;2022-10-16T08:33:36;10.68;;;6.30;;
61104;SDS011;46987;32.638;-115.438;2022-10-16T08:36:04;13.00;;;6.78;;
61104;SDS011;46987;32.638;-115.438;2022-10-16T08:38:32;9.73;;;5.40;;
61104;SDS011;46987;32.638;-115.438;2022-10-16T08:44:18;10.35;;;5.85;;
61104;SDS011;46987;32.638;-115.438;2022-10-16T08:47:03;10.57;;;6.15;;
61104;SDS011;46987;32.638;-115.438;2022-10-16T08:49:57;7.70;;;5.68;;
61104;SDS011;46987;32.638;-115.438;2022-10-16T08:52:47;10.90;;;5.85;;
61104;SDS011;46987;32.638;-115.438;2022-10-16T08:55:33;11.85;;;5.90;;
61104;SDS011;46987;32.638;-115.438;2022-10-16T08:58:43;9.43;;;5.70;;
61104;SDS011;46987;32.638;-115.438;2022-10-16T09:02:22;10.15;;;5.47;;
61104;SDS011;46987;32.638;-115.438;2022-10-16T09:05:21;8.18;;;6.03;;
61104;SDS011;46987;32.638;-115.438;2022-10-16T09:08:08;9.27;;;5.75;;
61104;SDS011;46987;32.638;-115.438;2022-10-16T09:10:43;10.77;;;5.43;;
61104;SDS011;46987;32.638;-115.438;2022-10-16T09:13:22;10.90;;;5.63;;
61104;SDS011;46987;32.638;-115.438;2022-10-16T09:15:55;9.27;;;5.50;;
61104;SDS011;46987;32.638;-115.438;2022-10-16T09:18:40;9.57;;;4.97;;
61104;SDS011;46987;32.638;-115.438;2022-10-16T09:21:19;17.27;;;5.70;;
61104;SDS011;46987;32.638;-115.438;2022-10-16T09:23:50;13.18;;;5.82;;
61104;SDS011;46987;32.638;-115.438;2022-10-16T09:26:18;8.88;;;5.32;;
61104;SDS011;46987;32.638;-115.438;2022-10-16T09:28:47;11.88;;;5.25;;
61104;SDS011;46987;32.638;-115.438;2022-10-16T09:31:20;12.98;;;6.20;;
61104;SDS011;46987;32.638;-115.438;2022-10-16T09:33:50;10.48;;;5.80;;
61104;SDS011;46987;32.638;-115.438;2022-10-16T09:36:21;9.13;;;5.68;;
61104;SDS011;46987;32.638;-115.438;2022-10-16T09:39:01;11.15;;;6.43;;
61104;SDS011;46987;32.638;-115.438;2022-10-16T09:41:30;7.55;;;5.70;;
61104;SDS011;46987;32.638;-115.438;2022-10-16T09:44:00;10.32;;;6.28;;
61104;SDS011;46987;32.638;-115.438;2022-10-16T09:46:32;9.82;;;6.38;;
61104;SDS011;46987;32.638;-115.438;2022-10-16T09:49:00;10.45;;;6.53;;
61104;SDS011;46987;32.638;-115.438;2022-10-16T09:51:29;10.85;;;6.25;;
61104;SDS011;46987;32.638;-115.438;2022-10-16T09:53:59;10.32;;;6.20;;
61104;SDS011;46987;32.638;-115.438;2022-10-16T09:56:28;11.55;;;5.13;;
61104;SDS011;46987;32.638;-115.438;2022-10-16T09:58:59;7.30;;;4.32;;
61104;SDS011;46987;32.638;-115.438;2022-10-16T10:01:29;8.07;;;4.30;;
61104;SDS011;46987;32.638;-115.438;2022-10-16T10:04:04;8.48;;;4.13;;
61104;SDS011;46987;32.638;-115.438;2022-10-16T10:06:33;8.18;;;3.47;;
61104;SDS011;46987;32.638;-115.438;2022-10-16T10:09:04;7.32;;;3.15;;
61104;SDS011;46987;32.638;-115.438;2022-10-16T10:11:48;7.72;;;3.00;;
61104;SDS011;46987;32.638;-115.438;2022-10-16T10:14:18;8.35;;;3.80;;
61104;SDS011;46987;32.638;-115.438;2022-10-16T10:17:08;7.03;;;3.25;;
61104;SDS011;46987;32.638;-115.438;2022-10-16T10:19:39;5.78;;;3.17;;
61104;SDS011;46987;32.638;-115.438;2022-10-16T10:22:17;5.85;;;2.90;;
61104;SDS011;46987;32.638;-115.438;2022-10-16T10:25:01;5.78;;;2.53;;
61104;SDS011;46987;32.638;-115.438;2022-10-16T10:28:23;5.47;;;2.15;;
61104;SDS011;46987;32.638;-115.438;2022-10-16T10:31:01;4.35;;;2.33;;
61104;SDS011;46987;32.638;-115.438;2022-10-16T10:33:37;6.97;;;2.20;;
61104;SDS011;46987;32.638;-115.438;2022-10-16T10:38:57;4.20;;;1.65;;
61104;SDS011;46987;32.638;-115.438;2022-10-16T10:44:27;4.20;;;1.42;;
61104;SDS011;46987;32.638;-115.438;2022-10-16T10:47:05;6.18;;;1.58;;
61104;SDS011;46987;32.638;-115.438;2022-10-16T10:49:48;5.65;;;1.42;;
61104;SDS011;46987;32.638;-115.438;2022-10-16T10:52:31;3.78;;;1.30;;
61104;SDS011;46987;32.638;-115.438;2022-10-16T10:55:13;4.53;;;1.58;;
61104;SDS011;46987;32.638;-115.438;2022-10-16T10:57:50;6.22;;;1.83;;
61104;SDS011;46987;32.638;-115.438;2022-10-16T11:00:28;6.22;;;1.50;;
61104;SDS011;46987;32.638;-115.438;2022-10-16T11:03:06;5.05;;;1.50;;
61104;SDS011;46987;32.638;-115.438;2022-10-16T11:05:50;4.45;;;1.42;;
61104;SDS011;46987;32.638;-115.438;2022-10-16T11:08:24;6.05;;;1.70;;
61104;SDS011;46987;32.638;-115.438;2022-10-16T11:10:57;6.18;;;1.60;;
61104;SDS011;46987;32.638;-115.438;2022-10-16T11:13:30;4.13;;;1.60;;
61104;SDS011;46987;32.638;-115.438;2022-10-16T11:16:02;5.72;;;1.58;;
61104;SDS011;46987;32.638;-115.438;2022-10-16T11:18:40;5.88;;;1.50;;
61104;SDS011;46987;32.638;-115.438;2022-10-16T11:21:18;5.40;;;2.17;;
61104;SDS011;46987;32.638;-115.438;2022-10-16T11:23:48;4.00;;;1.60;;
61104;SDS011;46987;32.638;-115.438;2022-10-16T11:26:21;3.53;;;1.45;;
61104;SDS011;46987;32.638;-115.438;2022-10-16T11:28:51;4.13;;;1.48;;
61104;SDS011;46987;32.638;-115.438;2022-10-16T11:31:23;6.05;;;1.85;;
61104;SDS011;46987;32.638;-115.438;2022-10-16T11:34:05;5.72;;;1.88;;
61104;SDS011;46987;32.638;-115.438;2022-10-16T11:36:44;4.68;;;1.80;;
61104;SDS011;46987;32.638;-115.438;2022-10-16T11:39:19;3.65;;;1.42;;
61104;SDS011;46987;32.638;-115.438;2022-10-16T11:41:49;3.92;;;1.40;;
61104;SDS011;46987;32.638;-115.438;2022-10-16T11:44:36;6.70;;;1.88;;
61104;SDS011;46987;32.638;-115.438;2022-10-16T11:47:13;6.18;;;2.08;;
61104;SDS011;46987;32.638;-115.438;2022-10-16T11:49:53;4.38;;;1.83;;
61104;SDS011;46987;32.638;-115.438;2022-10-16T11:52:28;4.85;;;1.67;;
61104;SDS011;46987;32.638;-115.438;2022-10-16T11:55:04;4.78;;;2.00;;
61104;SDS011;46987;32.638;-115.438;2022-10-16T11:57:39;6.72;;;2.33;;
61104;SDS011;46987;32.638;-115.438;2022-10-16T12:00:14;4.95;;;1.70;;
61104;SDS011;46987;32.638;-115.438;2022-10-16T12:02:54;5.20;;;1.85;;
61104;SDS011;46987;32.638;-115.438;2022-10-16T12:05:31;7.80;;;2.38;;
61104;SDS011;46987;32.638;-115.438;2022-10-16T12:08:12;5.07;;;1.77;;
61104;SDS011;46987;32.638;-115.438;2022-10-16T12:10:42;4.88;;;2.15;;
61104;SDS011;46987;32.638;-115.438;2022-10-16T12:13:29;7.03;;;2.15;;
61104;SDS011;46987;32.638;-115.438;2022-10-16T12:16:19;6.07;;;1.65;;
61104;SDS011;46987;32.638;-115.438;2022-10-16T12:18:48;5.18;;;1.80;;
61104;SDS011;46987;32.638;-115.438;2022-10-16T12:21:16;5.28;;;1.77;;
61104;SDS011;46987;32.638;-115.438;2022-10-16T12:23:50;6.90;;;1.83;;
61104;SDS011;46987;32.638;-115.438;2022-10-16T12:26:29;7.65;;;2.28;;
61104;SDS011;46987;32.638;-115.438;2022-10-16T12:29:13;3.97;;;1.70;;
61104;SDS011;46987;32.638;-115.438;2022-10-16T12:31:46;7.20;;;1.77;;
61104;SDS011;46987;32.638;-115.438;2022-10-16T12:34:19;4.18;;;1.60;;
61104;SDS011;46987;32.638;-115.438;2022-10-16T12:36:49;4.95;;;1.73;;
61104;SDS011;46987;32.638;-115.438;2022-10-16T12:39:22;5.65;;;2.03;;
61104;SDS011;46987;32.638;-115.438;2022-10-16T12:42:00;4.55;;;1.58;;
61104;SDS011;46987;32.638;-115.438;2022-10-16T12:44:32;7.07;;;1.80;;
61104;SDS011;46987;32.638;-115.438;2022-10-16T12:47:00;5.45;;;1.83;;
61104;SDS011;46987;32.638;-115.438;2022-10-16T12:49:34;4.85;;;1.90;;
61104;SDS011;46987;32.638;-115.438;2022-10-16T12:52:04;4.90;;;1.92;;
61104;SDS011;46987;32.638;-115.438;2022-10-16T12:54:50;6.05;;;2.17;;
61104;SDS011;46987;32.638;-115.438;2022-10-16T12:57:26;4.80;;;2.22;;
61104;SDS011;46987;32.638;-115.438;2022-10-16T13:00:04;4.32;;;1.73;;
61104;SDS011;46987;32.638;-115.438;2022-10-16T13:02:45;5.13;;;2.40;;
61104;SDS011;46987;32.638;-115.438;2022-10-16T13:05:33;5.53;;;2.47;;
61104;SDS011;46987;32.638;-115.438;2022-10-16T13:08:13;6.47;;;2.33;;
61104;SDS011;46987;32.638;-115.438;2022-10-16T13:10:58;5.28;;;2.35;;
61104;SDS011;46987;32.638;-115.438;2022-10-16T13:13:39;5.57;;;1.92;;
61104;SDS011;46987;32.638;-115.438;2022-10-16T13:16:22;4.38;;;2.30;;
61104;SDS011;46987;32.638;-115.438;2022-10-16T13:18:56;5.10;;;2.53;;
61104;SDS011;46987;32.638;-115.438;2022-10-16T13:21:33;5.00;;;2.55;;
61104;SDS011;46987;32.638;-115.438;2022-10-16T13:24:12;6.47;;;2.80;;
61104;SDS011;46987;32.638;-115.438;2022-10-16T13:29:23;7.18;;;1.70;;
61104;SDS011;46987;32.638;-115.438;2022-10-16T13:31:55;6.33;;;2.10;;
61104;SDS011;46987;32.638;-115.438;2022-10-16T13:34:23;5.32;;;1.85;;
61104;SDS011;46987;32.638;-115.438;2022-10-16T13:36:52;4.78;;;1.70;;
61104;SDS011;46987;32.638;-115.438;2022-10-16T13:39:23;3.90;;;1.50;;
61104;SDS011;46987;32.638;-115.438;2022-10-16T13:44:39;4.40;;;1.75;;
61104;SDS011;46987;32.638;-115.438;2022-10-16T13:47:16;4.57;;;1.60;;
61104;SDS011;46987;32.638;-115.438;2022-10-16T13:49:44;3.92;;;1.65;;
61104;SDS011;46987;32.638;-115.438;2022-10-16T13:52:16;4.88;;;1.65;;
61104;SDS011;46987;32.638;-115.438;2022-10-16T13:57:14;4.68;;;1.30;;
61104;SDS011;46987;32.638;-115.438;2022-10-16T13:59:42;5.38;;;1.50;;
61104;SDS011;46987;32.638;-115.438;2022-10-16T14:02:15;6.97;;;1.88;;
61104;SDS011;46987;32.638;-115.438;2022-10-16T14:04:48;7.47;;;1.67;;
61104;SDS011;46987;32.638;-115.438;2022-10-16T14:07:19;4.22;;;1.52;;
61104;SDS011;46987;32.638;-115.438;2022-10-16T14:09:51;4.47;;;1.55;;
61104;SDS011;46987;32.638;-115.438;2022-10-16T14:12:21;5.22;;;1.50;;
61104;SDS011;46987;32.638;-115.438;2022-10-16T14:14:50;7.78;;;1.95;;
61104;SDS011;46987;32.638;-115.438;2022-10-16T14:17:20;5.72;;;1.88;;
61104;SDS011;46987;32.638;-115.438;2022-10-16T14:19:51;4.32;;;1.80;;
61104;SDS011;46987;32.638;-115.438;2022-10-16T14:22:24;5.28;;;1.88;;
61104;SDS011;46987;32.638;-115.438;2022-10-16T14:24:56;4.57;;;1.90;;
61104;SDS011;46987;32.638;-115.438;2022-10-16T14:27:26;5.18;;;1.85;;
61104;SDS011;46987;32.638;-115.438;2022-10-16T14:30:14;6.15;;;1.90;;
61104;SDS011;46987;32.638;-115.438;2022-10-16T14:32:52;4.80;;;2.28;;
61104;SDS011;46987;32.638;-115.438;2022-10-16T14:35:22;7.20;;;1.88;;
61104;SDS011;46987;32.638;-115.438;2022-10-16T14:37:52;5.35;;;2.30;;
61104;SDS011;46987;32.638;-115.438;2022-10-16T14:40:21;6.45;;;2.28;;
61104;SDS011;46987;32.638;-115.438;2022-10-16T14:42:52;4.72;;;1.85;;
61104;SDS011;46987;32.638;-115.438;2022-10-16T14:45:20;5.13;;;2.22;;
61104;SDS011;46987;32.638;-115.438;2022-10-16T14:47:50;4.13;;;1.58;;
61104;SDS011;46987;32.638;-115.438;2022-10-16T14:50:19;7.32;;;1.80;;
61104;SDS011;46987;32.638;-115.438;2022-10-16T14:52:46;3.33;;;1.60;;